sensor_id;sensor_type;location;lat;lon;timestamp;temperature;humidity
22185;DHT22;11258;52.516;13.318;2022-12-19T00:01:49;-3.70;99.90
22185;DHT22;11258;52.516;13.318;2022-12-19T00:04:14;-3.70;99.90
22185;DHT22;11258;52.516;13.318;2022-12-19T00:06:44;-3.80;99.90
22185;DHT22;11258;52.516;13.318;2022-12-19T00:09:11;-3.70;99.90
22185;DHT22;11258;52.516;13.318;2022-12-19T00:11:37;-3.70;99.90
22185;DHT22;11258;52.516;13.318;2022-12-19T00:14:04;-3.70;99.90
22185;DHT22;11258;52.516;13.318;2022-12-19T00:16:29;-3.70;99.90
22185;DHT22;11258;52.516;13.318;2022-12-19T00:18:58;-3.70;99.90
22185;DHT22;11258;52.516;13.318;2022-12-19T00:21:26;-3.70;99.90
22185;DHT22;11258;52.516;13.318;2022-12-19T00:23:52;-3.60;99.90
22185;DHT22;11258;52.516;13.318;2022-12-19T00:29:14;-3.60;99.90
22185;DHT22;11258;52.516;13.318;2022-12-19T00:31:40;-3.60;99.90
22185;DHT22;11258;52.516;13.318;2022-12-19T00:34:06;-3.60;99.90
22185;DHT22;11258;52.516;13.318;2022-12-19T00:36:33;-3.60;99.90
22185;DHT22;11258;52.516;13.318;2022-12-19T00:39:00;-3.60;99.90
22185;DHT22;11258;52.516;13.318;2022-12-19T00:41:31;-3.50;99.90
22185;DHT22;11258;52.516;13.318;2022-12-19T00:44:05;-3.50;99.90
22185;DHT22;11258;52.516;13.318;2022-12-19T00:46:31;-3.50;99.90
22185;DHT22;11258;52.516;13.318;2022-12-19T00:48:58;-3.50;99.90
22185;DHT22;11258;52.516;13.318;2022-12-19T00:51:29;-3.50;99.90
22185;DHT22;11258;52.516;13.318;2022-12-19T00:53:56;-3.40;99.90
22185;DHT22;11258;52.516;13.318;2022-12-19T00:56:30;-3.50;99.90
22185;DHT22;11258;52.516;13.318;2022-12-19T00:58:56;-3.40;99.90
22185;DHT22;11258;52.516;13.318;2022-12-19T01:01:34;-3.50;99.90
22185;DHT22;11258;52.516;13.318;2022-12-19T01:04:01;-3.50;99.90
22185;DHT22;11258;52.516;13.318;2022-12-19T01:06:26;-3.50;99.90
22185;DHT22;11258;52.516;13.318;2022-12-19T01:08:53;-3.50;99.90
22185;DHT22;11258;52.516;13.318;2022-12-19T01:11:19;-3.40;99.90
22185;DHT22;11258;52.516;13.318;2022-12-19T01:14:04;-3.40;99.90
22185;DHT22;11258;52.516;13.318;2022-12-19T01:16:30;-3.40;99.90
22185;DHT22;11258;52.516;13.318;2022-12-19T01:18:55;-3.40;99.90
22185;DHT22;11258;52.516;13.318;2022-12-19T01:21:21;-3.40;99.90
22185;DHT22;11258;52.516;13.318;2022-12-19T01:23:46;-3.30;99.90
22185;DHT22;11258;52.516;13.318;2022-12-19T01:26:12;-3.30;99.90
22185;DHT22;11258;52.516;13.318;2022-12-19T01:28:38;-3.30;99.90
22185;DHT22;11258;52.516;13.318;2022-12-19T01:31:05;-3.30;99.90
22185;DHT22;11258;52.516;13.318;2022-12-19T01:33:31;-3.30;99.90
22185;DHT22;11258;52.516;13.318;2022-12-19T01:35:56;-3.30;99.90
22185;DHT22;11258;52.516;13.318;2022-12-19T01:38:22;-3.30;99.90
22185;DHT22;11258;52.516;13.318;2022-12-19T01:40:56;-3.30;99.90
22185;DHT22;11258;52.516;13.318;2022-12-19T01:43:23;-3.20;99.90
22185;DHT22;11258;52.516;13.318;2022-12-19T01:45:54;-3.20;99.90
22185;DHT22;11258;52.516;13.318;2022-12-19T01:51:23;-3.20;99.90
22185;DHT22;11258;52.516;13.318;2022-12-19T01:53:58;-3.20;99.90
22185;DHT22;11258;52.516;13.318;2022-12-19T01:56:31;-3.20;99.90
22185;DHT22;11258;52.516;13.318;2022-12-19T01:59:02;-3.20;99.90
22185;DHT22;11258;52.516;13.318;2022-12-19T02:01:28;-3.20;99.90
22185;DHT22;11258;52.516;13.318;2022-12-19T02:03:55;-3.20;99.90
22185;DHT22;11258;52.516;13.318;2022-12-19T02:06:23;-3.20;99.90
22185;DHT22;11258;52.516;13.318;2022-12-19T02:08:49;-3.10;99.90
22185;DHT22;11258;52.516;13.318;2022-12-19T02:11:15;-3.10;99.90
22185;DHT22;11258;52.516;13.318;2022-12-19T02:13:41;-3.10;99.90
22185;DHT22;11258;52.516;13.318;2022-12-19T02:22:04;-3.10;99.90
22185;DHT22;11258;52.516;13.318;2022-12-19T02:34:57;-3.10;99.90
22185;DHT22;11258;52.516;13.318;2022-12-19T02:37:34;-3.10;99.90
22185;DHT22;11258;52.516;13.318;2022-12-19T02:40:22;-3.10;99.90
22185;DHT22;11258;52.516;13.318;2022-12-19T02:42:54;-3.10;99.90
22185;DHT22;11258;52.516;13.318;2022-12-19T02:45:22;-3.10;99.90
22185;DHT22;11258;52.516;13.318;2022-12-19T02:47:49;-3.10;99.90
22185;DHT22;11258;52.516;13.318;2022-12-19T02:50:16;-3.10;99.90
22185;DHT22;11258;52.516;13.318;2022-12-19T02:52:43;-3.10;99.90
22185;DHT22;11258;52.516;13.318;2022-12-19T02:55:13;-3.10;99.90
22185;DHT22;11258;52.516;13.318;2022-12-19T03:00:22;-3.10;99.90
22185;DHT22;11258;52.516;13.318;2022-12-19T03:03:14;-3.20;99.90
22185;DHT22;11258;52.516;13.318;2022-12-19T03:11:12;-3.20;99.90
22185;DHT22;11258;52.516;13.318;2022-12-19T03:13:48;-3.10;99.90
22185;DHT22;11258;52.516;13.318;2022-12-19T03:16:15;-3.10;99.90
22185;DHT22;11258;52.516;13.318;2022-12-19T03:18:41;-3.10;99.90
22185;DHT22;11258;52.516;13.318;2022-12-19T03:23:36;-3.10;99.90
22185;DHT22;11258;52.516;13.318;2022-12-19T03:26:05;-3.10;99.90
22185;DHT22;11258;52.516;13.318;2022-12-19T03:31:07;-3.00;99.90
22185;DHT22;11258;52.516;13.318;2022-12-19T03:33:36;-3.00;99.90
22185;DHT22;11258;52.516;13.318;2022-12-19T03:36:04;-3.00;99.90
22185;DHT22;11258;52.516;13.318;2022-12-19T03:38:33;-3.10;99.90
22185;DHT22;11258;52.516;13.318;2022-12-19T03:41:01;-3.00;99.90
22185;DHT22;11258;52.516;13.318;2022-12-19T03:43:28;-3.00;99.90
22185;DHT22;11258;52.516;13.318;2022-12-19T03:46:03;-3.00;99.90
22185;DHT22;11258;52.516;13.318;2022-12-19T03:48:32;-3.00;99.90
22185;DHT22;11258;52.516;13.318;2022-12-19T03:51:28;-3.00;99.90
22185;DHT22;11258;52.516;13.318;2022-12-19T03:59:47;-3.10;99.90
22185;DHT22;11258;52.516;13.318;2022-12-19T04:01:48;-3.10;99.90
22185;DHT22;11258;52.516;13.318;2022-12-19T04:04:16;-3.10;99.90
22185;DHT22;11258;52.516;13.318;2022-12-19T04:06:43;-3.10;99.90
22185;DHT22;11258;52.516;13.318;2022-12-19T04:09:10;-3.10;99.90
22185;DHT22;11258;52.516;13.318;2022-12-19T04:11:42;-3.10;99.90
22185;DHT22;11258;52.516;13.318;2022-12-19T04:14:15;-3.10;99.90
22185;DHT22;11258;52.516;13.318;2022-12-19T04:16:50;-3.10;99.90
22185;DHT22;11258;52.516;13.318;2022-12-19T04:19:41;-3.10;99.90
22185;DHT22;11258;52.516;13.318;2022-12-19T04:24:58;-3.10;99.90
22185;DHT22;11258;52.516;13.318;2022-12-19T04:27:26;-3.10;99.90
22185;DHT22;11258;52.516;13.318;2022-12-19T04:29:54;-3.10;99.90
22185;DHT22;11258;52.516;13.318;2022-12-19T04:32:21;-3.10;99.90
22185;DHT22;11258;52.516;13.318;2022-12-19T04:34:47;-3.10;99.90
22185;DHT22;11258;52.516;13.318;2022-12-19T04:37:13;-3.10;99.90
22185;DHT22;11258;52.516;13.318;2022-12-19T04:39:38;-3.10;99.90
22185;DHT22;11258;52.516;13.318;2022-12-19T04:42:04;-3.10;99.90
22185;DHT22;11258;52.516;13.318;2022-12-19T04:44:30;-3.10;99.90
22185;DHT22;11258;52.516;13.318;2022-12-19T04:46:55;-3.10;99.90
22185;DHT22;11258;52.516;13.318;2022-12-19T04:49:21;-3.10;99.90
22185;DHT22;11258;52.516;13.318;2022-12-19T04:51:47;-3.10;99.90
22185;DHT22;11258;52.516;13.318;2022-12-19T04:54:12;-3.10;99.90
22185;DHT22;11258;52.516;13.318;2022-12-19T04:56:38;-3.10;99.90
22185;DHT22;11258;52.516;13.318;2022-12-19T04:59:03;-3.20;99.90
22185;DHT22;11258;52.516;13.318;2022-12-19T05:01:29;-3.10;99.90
22185;DHT22;11258;52.516;13.318;2022-12-19T05:03:55;-3.10;99.90
22185;DHT22;11258;52.516;13.318;2022-12-19T05:06:20;-3.10;99.90
22185;DHT22;11258;52.516;13.318;2022-12-19T05:08:47;-3.20;99.90
22185;DHT22;11258;52.516;13.318;2022-12-19T05:11:14;-3.20;99.90
22185;DHT22;11258;52.516;13.318;2022-12-19T05:13:40;-3.20;99.90
22185;DHT22;11258;52.516;13.318;2022-12-19T05:16:07;-3.10;99.90
22185;DHT22;11258;52.516;13.318;2022-12-19T05:18:34;-3.20;99.90
22185;DHT22;11258;52.516;13.318;2022-12-19T05:21:00;-3.10;99.90
22185;DHT22;11258;52.516;13.318;2022-12-19T05:23:26;-3.20;99.90
22185;DHT22;11258;52.516;13.318;2022-12-19T05:25:52;-3.20;99.90
22185;DHT22;11258;52.516;13.318;2022-12-19T05:28:18;-3.20;99.90
22185;DHT22;11258;52.516;13.318;2022-12-19T05:30:44;-3.20;99.90
22185;DHT22;11258;52.516;13.318;2022-12-19T05:33:10;-3.20;99.90
22185;DHT22;11258;52.516;13.318;2022-12-19T05:35:36;-3.20;99.90
22185;DHT22;11258;52.516;13.318;2022-12-19T05:38:03;-3.20;99.90
22185;DHT22;11258;52.516;13.318;2022-12-19T05:40:29;-3.20;99.90
22185;DHT22;11258;52.516;13.318;2022-12-19T05:42:54;-3.20;99.90
22185;DHT22;11258;52.516;13.318;2022-12-19T05:45:21;-3.20;99.90
22185;DHT22;11258;52.516;13.318;2022-12-19T05:47:47;-3.20;99.90
22185;DHT22;11258;52.516;13.318;2022-12-19T05:50:16;-3.10;99.90
22185;DHT22;11258;52.516;13.318;2022-12-19T05:52:42;-3.10;99.90
22185;DHT22;11258;52.516;13.318;2022-12-19T05:55:09;-3.10;99.90
22185;DHT22;11258;52.516;13.318;2022-12-19T05:57:35;-3.10;99.90
22185;DHT22;11258;52.516;13.318;2022-12-19T06:00:02;-3.10;99.90
22185;DHT22;11258;52.516;13.318;2022-12-19T06:02:32;-3.00;99.90
22185;DHT22;11258;52.516;13.318;2022-12-19T06:04:58;-3.00;99.90
22185;DHT22;11258;52.516;13.318;2022-12-19T06:07:23;-3.00;99.90
22185;DHT22;11258;52.516;13.318;2022-12-19T06:09:49;-2.90;99.90
22185;DHT22;11258;52.516;13.318;2022-12-19T06:12:15;-3.00;99.90
22185;DHT22;11258;52.516;13.318;2022-12-19T06:14:40;-3.00;99.90
22185;DHT22;11258;52.516;13.318;2022-12-19T06:17:06;-2.90;99.90
22185;DHT22;11258;52.516;13.318;2022-12-19T06:19:32;-2.90;99.90
22185;DHT22;11258;52.516;13.318;2022-12-19T06:21:57;-2.90;99.90
22185;DHT22;11258;52.516;13.318;2022-12-19T06:24:24;-2.90;99.90
22185;DHT22;11258;52.516;13.318;2022-12-19T06:26:49;-2.80;99.90
22185;DHT22;11258;52.516;13.318;2022-12-19T06:29:15;-2.80;99.90
22185;DHT22;11258;52.516;13.318;2022-12-19T06:31:41;-2.80;99.90
22185;DHT22;11258;52.516;13.318;2022-12-19T06:34:09;-2.70;99.90
22185;DHT22;11258;52.516;13.318;2022-12-19T06:36:34;-2.70;99.90
22185;DHT22;11258;52.516;13.318;2022-12-19T06:39:00;-2.70;99.90
22185;DHT22;11258;52.516;13.318;2022-12-19T06:41:26;-2.60;99.90
22185;DHT22;11258;52.516;13.318;2022-12-19T06:44:11;-2.60;99.90
22185;DHT22;11258;52.516;13.318;2022-12-19T06:46:37;-2.60;99.90
22185;DHT22;11258;52.516;13.318;2022-12-19T06:49:04;-2.60;99.90
22185;DHT22;11258;52.516;13.318;2022-12-19T06:51:30;-2.60;99.90
22185;DHT22;11258;52.516;13.318;2022-12-19T06:53:56;-2.50;99.90
22185;DHT22;11258;52.516;13.318;2022-12-19T06:56:21;-2.50;99.90
22185;DHT22;11258;52.516;13.318;2022-12-19T06:58:47;-2.50;99.90
22185;DHT22;11258;52.516;13.318;2022-12-19T07:04:02;-2.40;99.90
22185;DHT22;11258;52.516;13.318;2022-12-19T07:06:28;-2.40;99.90
22185;DHT22;11258;52.516;13.318;2022-12-19T07:08:53;-2.30;99.90
22185;DHT22;11258;52.516;13.318;2022-12-19T07:11:19;-2.30;99.90
22185;DHT22;11258;52.516;13.318;2022-12-19T07:13:44;-2.30;99.90
22185;DHT22;11258;52.516;13.318;2022-12-19T07:16:10;-2.30;99.90
22185;DHT22;11258;52.516;13.318;2022-12-19T07:18:37;-2.20;99.90
22185;DHT22;11258;52.516;13.318;2022-12-19T07:21:05;-2.20;99.90
22185;DHT22;11258;52.516;13.318;2022-12-19T07:23:32;-2.20;99.90
22185;DHT22;11258;52.516;13.318;2022-12-19T07:25:58;-2.20;99.90
22185;DHT22;11258;52.516;13.318;2022-12-19T07:28:24;-2.20;99.90
22185;DHT22;11258;52.516;13.318;2022-12-19T07:30:50;-2.10;99.90
22185;DHT22;11258;52.516;13.318;2022-12-19T07:33:16;-2.10;99.90
22185;DHT22;11258;52.516;13.318;2022-12-19T07:35:41;-2.10;99.90
22185;DHT22;11258;52.516;13.318;2022-12-19T07:38:07;-2.00;99.90
22185;DHT22;11258;52.516;13.318;2022-12-19T07:40:33;-2.00;99.90
22185;DHT22;11258;52.516;13.318;2022-12-19T07:43:04;-2.00;99.90
22185;DHT22;11258;52.516;13.318;2022-12-19T07:45:30;-2.00;99.90
22185;DHT22;11258;52.516;13.318;2022-12-19T07:48:00;-1.90;99.90
22185;DHT22;11258;52.516;13.318;2022-12-19T07:50:27;-1.90;99.90
22185;DHT22;11258;52.516;13.318;2022-12-19T07:52:52;-1.80;99.90
22185;DHT22;11258;52.516;13.318;2022-12-19T07:55:18;-1.80;99.90
22185;DHT22;11258;52.516;13.318;2022-12-19T07:57:44;-1.80;99.90
22185;DHT22;11258;52.516;13.318;2022-12-19T08:00:09;-1.80;99.90
22185;DHT22;11258;52.516;13.318;2022-12-19T08:02:35;-1.80;99.90
22185;DHT22;11258;52.516;13.318;2022-12-19T08:05:02;-1.70;99.90
22185;DHT22;11258;52.516;13.318;2022-12-19T08:07:28;-1.60;99.90
22185;DHT22;11258;52.516;13.318;2022-12-19T08:09:53;-1.60;99.90
22185;DHT22;11258;52.516;13.318;2022-12-19T08:12:20;-1.60;99.90
22185;DHT22;11258;52.516;13.318;2022-12-19T08:14:46;-1.60;99.90
22185;DHT22;11258;52.516;13.318;2022-12-19T08:17:11;-1.50;99.90
22185;DHT22;11258;52.516;13.318;2022-12-19T08:19:37;-1.50;99.90
22185;DHT22;11258;52.516;13.318;2022-12-19T08:22:02;-1.40;99.90
22185;DHT22;11258;52.516;13.318;2022-12-19T08:24:28;-1.40;99.90
22185;DHT22;11258;52.516;13.318;2022-12-19T08:26:55;-1.30;99.90
22185;DHT22;11258;52.516;13.318;2022-12-19T08:29:21;-1.30;99.90
22185;DHT22;11258;52.516;13.318;2022-12-19T08:31:47;-1.20;99.90
22185;DHT22;11258;52.516;13.318;2022-12-19T08:34:13;-1.20;99.90
22185;DHT22;11258;52.516;13.318;2022-12-19T08:36:38;-1.20;99.90
22185;DHT22;11258;52.516;13.318;2022-12-19T08:39:05;-1.10;99.90
22185;DHT22;11258;52.516;13.318;2022-12-19T08:41:30;-1.10;99.90
22185;DHT22;11258;52.516;13.318;2022-12-19T08:43:56;-1.10;99.90
22185;DHT22;11258;52.516;13.318;2022-12-19T08:46:22;-1.10;99.90
22185;DHT22;11258;52.516;13.318;2022-12-19T08:48:48;-1.10;99.90
22185;DHT22;11258;52.516;13.318;2022-12-19T08:51:15;-1.00;99.90
22185;DHT22;11258;52.516;13.318;2022-12-19T08:53:42;-1.00;99.90
22185;DHT22;11258;52.516;13.318;2022-12-19T08:56:16;-1.00;99.90
22185;DHT22;11258;52.516;13.318;2022-12-19T08:58:42;-1.00;99.90
22185;DHT22;11258;52.516;13.318;2022-12-19T09:01:11;-0.90;99.90
22185;DHT22;11258;52.516;13.318;2022-12-19T09:03:41;-0.90;99.90
22185;DHT22;11258;52.516;13.318;2022-12-19T09:06:08;-0.90;99.90
22185;DHT22;11258;52.516;13.318;2022-12-19T09:08:34;-0.90;99.90
22185;DHT22;11258;52.516;13.318;2022-12-19T09:13:30;-0.80;99.90
22185;DHT22;11258;52.516;13.318;2022-12-19T09:16:00;-0.70;99.90
22185;DHT22;11258;52.516;13.318;2022-12-19T09:18:27;-0.70;99.90
22185;DHT22;11258;52.516;13.318;2022-12-19T09:20:54;-0.70;99.90
22185;DHT22;11258;52.516;13.318;2022-12-19T09:23:20;-0.60;99.90
22185;DHT22;11258;52.516;13.318;2022-12-19T09:25:46;-0.60;99.90
22185;DHT22;11258;52.516;13.318;2022-12-19T09:28:11;-0.60;99.90
22185;DHT22;11258;52.516;13.318;2022-12-19T09:30:37;-0.60;99.90
22185;DHT22;11258;52.516;13.318;2022-12-19T09:33:03;-0.50;99.90
22185;DHT22;11258;52.516;13.318;2022-12-19T09:35:29;-0.50;99.90
22185;DHT22;11258;52.516;13.318;2022-12-19T09:37:54;-0.50;99.90
22185;DHT22;11258;52.516;13.318;2022-12-19T09:40:20;-0.40;99.90
22185;DHT22;11258;52.516;13.318;2022-12-19T09:43:00;-0.40;99.90
22185;DHT22;11258;52.516;13.318;2022-12-19T09:45:42;-0.30;99.90
22185;DHT22;11258;52.516;13.318;2022-12-19T09:48:20;-0.30;99.90
22185;DHT22;11258;52.516;13.318;2022-12-19T09:51:37;-0.20;99.90
22185;DHT22;11258;52.516;13.318;2022-12-19T09:54:15;-0.20;99.90
22185;DHT22;11258;52.516;13.318;2022-12-19T09:56:43;-0.10;99.90
22185;DHT22;11258;52.516;13.318;2022-12-19T09:59:33;-0.10;99.90
22185;DHT22;11258;52.516;13.318;2022-12-19T10:02:33;0.00;99.90
22185;DHT22;11258;52.516;13.318;2022-12-19T10:07:51;0.10;99.90
22185;DHT22;11258;52.516;13.318;2022-12-19T10:10:22;0.10;99.90
22185;DHT22;11258;52.516;13.318;2022-12-19T10:15:46;0.20;99.90
22185;DHT22;11258;52.516;13.318;2022-12-19T10:18:50;0.30;99.90
22185;DHT22;11258;52.516;13.318;2022-12-19T10:27:14;0.40;99.90
22185;DHT22;11258;52.516;13.318;2022-12-19T10:35:36;0.50;99.90
22185;DHT22;11258;52.516;13.318;2022-12-19T10:38:15;0.60;99.90
22185;DHT22;11258;52.516;13.318;2022-12-19T10:43:35;0.70;99.90
22185;DHT22;11258;52.516;13.318;2022-12-19T10:46:14;0.80;99.90
22185;DHT22;11258;52.516;13.318;2022-12-19T10:48:41;0.80;99.90
22185;DHT22;11258;52.516;13.318;2022-12-19T10:51:21;0.90;99.90
22185;DHT22;11258;52.516;13.318;2022-12-19T10:53:58;0.90;99.90
22185;DHT22;11258;52.516;13.318;2022-12-19T10:56:29;0.90;99.90
22185;DHT22;11258;52.516;13.318;2022-12-19T10:58:56;1.00;99.90
22185;DHT22;11258;52.516;13.318;2022-12-19T11:01:37;1.00;99.90
22185;DHT22;11258;52.516;13.318;2022-12-19T11:04:13;1.00;99.90
22185;DHT22;11258;52.516;13.318;2022-12-19T11:06:49;1.00;99.90
22185;DHT22;11258;52.516;13.318;2022-12-19T11:11:42;1.00;99.90
22185;DHT22;11258;52.516;13.318;2022-12-19T11:14:20;1.10;99.90
22185;DHT22;11258;52.516;13.318;2022-12-19T11:16:46;1.00;99.90
22185;DHT22;11258;52.516;13.318;2022-12-19T11:22:18;1.10;99.90
22185;DHT22;11258;52.516;13.318;2022-12-19T11:24:50;1.10;99.90
22185;DHT22;11258;52.516;13.318;2022-12-19T11:30:22;1.10;99.90
22185;DHT22;11258;52.516;13.318;2022-12-19T11:33:06;1.10;99.90
22185;DHT22;11258;52.516;13.318;2022-12-19T11:38:16;1.10;99.90
22185;DHT22;11258;52.516;13.318;2022-12-19T11:40:52;1.20;99.90
22185;DHT22;11258;52.516;13.318;2022-12-19T11:43:36;1.20;99.90
22185;DHT22;11258;52.516;13.318;2022-12-19T11:49:27;1.30;99.90
22185;DHT22;11258;52.516;13.318;2022-12-19T11:52:19;1.30;99.90
22185;DHT22;11258;52.516;13.318;2022-12-19T11:55:15;1.30;99.90
22185;DHT22;11258;52.516;13.318;2022-12-19T11:57:42;1.30;99.90
22185;DHT22;11258;52.516;13.318;2022-12-19T12:00:34;1.30;99.90
22185;DHT22;11258;52.516;13.318;2022-12-19T12:05:49;1.30;99.90
22185;DHT22;11258;52.516;13.318;2022-12-19T12:08:43;1.30;99.90
22185;DHT22;11258;52.516;13.318;2022-12-19T12:30:16;1.50;99.90
22185;DHT22;11258;52.516;13.318;2022-12-19T12:35:36;1.50;99.90
22185;DHT22;11258;52.516;13.318;2022-12-19T12:38:20;1.50;99.90
22185;DHT22;11258;52.516;13.318;2022-12-19T12:41:23;1.50;99.90
22185;DHT22;11258;52.516;13.318;2022-12-19T12:44:12;1.50;99.90
22185;DHT22;11258;52.516;13.318;2022-12-19T12:46:45;1.60;99.90
22185;DHT22;11258;52.516;13.318;2022-12-19T12:49:33;1.60;99.90
22185;DHT22;11258;52.516;13.318;2022-12-19T12:52:02;1.50;99.90
22185;DHT22;11258;52.516;13.318;2022-12-19T12:54:33;1.50;99.90
22185;DHT22;11258;52.516;13.318;2022-12-19T12:57:01;1.50;99.90
22185;DHT22;11258;52.516;13.318;2022-12-19T12:59:28;1.50;99.90
22185;DHT22;11258;52.516;13.318;2022-12-19T13:01:56;1.60;99.90
22185;DHT22;11258;52.516;13.318;2022-12-19T13:04:24;1.60;99.90
22185;DHT22;11258;52.516;13.318;2022-12-19T13:07:01;1.50;99.90
22185;DHT22;11258;52.516;13.318;2022-12-19T13:09:28;1.50;99.90
22185;DHT22;11258;52.516;13.318;2022-12-19T13:14:45;1.60;99.90
22185;DHT22;11258;52.516;13.318;2022-12-19T13:17:24;1.60;99.90
22185;DHT22;11258;52.516;13.318;2022-12-19T13:22:38;1.60;99.90
22185;DHT22;11258;52.516;13.318;2022-12-19T13:36:59;1.70;99.90
22185;DHT22;11258;52.516;13.318;2022-12-19T13:39:40;1.70;99.90
22185;DHT22;11258;52.516;13.318;2022-12-19T13:42:16;1.70;99.90
22185;DHT22;11258;52.516;13.318;2022-12-19T13:45:13;1.70;99.90
22185;DHT22;11258;52.516;13.318;2022-12-19T13:47:42;1.70;99.90
22185;DHT22;11258;52.516;13.318;2022-12-19T13:50:32;1.70;99.90
22185;DHT22;11258;52.516;13.318;2022-12-19T13:53:00;1.70;99.90
22185;DHT22;11258;52.516;13.318;2022-12-19T13:55:29;1.70;99.90
22185;DHT22;11258;52.516;13.318;2022-12-19T13:57:56;1.70;99.90
22185;DHT22;11258;52.516;13.318;2022-12-19T14:00:30;1.70;99.90
22185;DHT22;11258;52.516;13.318;2022-12-19T14:02:58;1.80;99.90
22185;DHT22;11258;52.516;13.318;2022-12-19T14:05:37;1.70;99.90
22185;DHT22;11258;52.516;13.318;2022-12-19T14:08:05;1.80;99.90
22185;DHT22;11258;52.516;13.318;2022-12-19T14:10:33;1.70;99.90
22185;DHT22;11258;52.516;13.318;2022-12-19T14:13:03;1.70;99.90
22185;DHT22;11258;52.516;13.318;2022-12-19T14:15:48;1.80;99.90
22185;DHT22;11258;52.516;13.318;2022-12-19T14:18:26;1.80;99.90
22185;DHT22;11258;52.516;13.318;2022-12-19T14:23:36;1.80;99.90
22185;DHT22;11258;52.516;13.318;2022-12-19T14:26:03;1.80;99.90
22185;DHT22;11258;52.516;13.318;2022-12-19T14:28:48;1.90;99.90
22185;DHT22;11258;52.516;13.318;2022-12-19T14:31:17;1.90;99.90
22185;DHT22;11258;52.516;13.318;2022-12-19T14:33:45;1.90;99.90
22185;DHT22;11258;52.516;13.318;2022-12-19T14:36:13;1.90;99.90
22185;DHT22;11258;52.516;13.318;2022-12-19T14:38:39;1.90;99.90
22185;DHT22;11258;52.516;13.318;2022-12-19T14:41:34;2.00;99.90
22185;DHT22;11258;52.516;13.318;2022-12-19T14:44:19;2.00;99.90
22185;DHT22;11258;52.516;13.318;2022-12-19T14:47:07;2.00;99.90
22185;DHT22;11258;52.516;13.318;2022-12-19T14:49:34;2.00;99.90
22185;DHT22;11258;52.516;13.318;2022-12-19T14:52:04;2.10;99.90
22185;DHT22;11258;52.516;13.318;2022-12-19T14:54:29;2.10;99.90
22185;DHT22;11258;52.516;13.318;2022-12-19T14:57:00;2.10;99.90
22185;DHT22;11258;52.516;13.318;2022-12-19T15:04:46;2.10;99.90
22185;DHT22;11258;52.516;13.318;2022-12-19T15:07:19;2.20;99.90
22185;DHT22;11258;52.516;13.318;2022-12-19T15:10:07;2.20;99.90
22185;DHT22;11258;52.516;13.318;2022-12-19T15:12:55;2.20;99.90
22185;DHT22;11258;52.516;13.318;2022-12-19T15:15:51;2.30;99.90
22185;DHT22;11258;52.516;13.318;2022-12-19T15:21:01;2.30;99.90
22185;DHT22;11258;52.516;13.318;2022-12-19T15:23:27;2.40;99.90
22185;DHT22;11258;52.516;13.318;2022-12-19T15:25:54;2.40;99.90
22185;DHT22;11258;52.516;13.318;2022-12-19T15:28:25;2.40;99.90
22185;DHT22;11258;52.516;13.318;2022-12-19T15:30:57;2.50;99.90
22185;DHT22;11258;52.516;13.318;2022-12-19T15:33:24;2.50;99.90
22185;DHT22;11258;52.516;13.318;2022-12-19T15:35:49;2.50;99.90
22185;DHT22;11258;52.516;13.318;2022-12-19T15:38:15;2.50;99.90
22185;DHT22;11258;52.516;13.318;2022-12-19T15:40:41;2.50;99.90
22185;DHT22;11258;52.516;13.318;2022-12-19T15:43:15;2.50;99.90
22185;DHT22;11258;52.516;13.318;2022-12-19T15:45:42;2.50;99.90
22185;DHT22;11258;52.516;13.318;2022-12-19T15:48:13;2.60;99.90
22185;DHT22;11258;52.516;13.318;2022-12-19T15:50:39;2.60;99.90
22185;DHT22;11258;52.516;13.318;2022-12-19T15:53:20;2.60;99.90
22185;DHT22;11258;52.516;13.318;2022-12-19T15:55:47;2.60;99.90
22185;DHT22;11258;52.516;13.318;2022-12-19T15:58:14;2.70;99.90
22185;DHT22;11258;52.516;13.318;2022-12-19T16:00:43;2.70;99.90
22185;DHT22;11258;52.516;13.318;2022-12-19T16:03:13;2.70;99.90
22185;DHT22;11258;52.516;13.318;2022-12-19T16:05:39;2.70;99.90
22185;DHT22;11258;52.516;13.318;2022-12-19T16:08:12;2.70;99.90
22185;DHT22;11258;52.516;13.318;2022-12-19T16:10:39;2.70;99.90
22185;DHT22;11258;52.516;13.318;2022-12-19T16:13:04;2.80;99.90
22185;DHT22;11258;52.516;13.318;2022-12-19T16:15:32;2.70;99.90
22185;DHT22;11258;52.516;13.318;2022-12-19T16:18:00;2.80;99.90
22185;DHT22;11258;52.516;13.318;2022-12-19T16:20:30;2.90;99.90
22185;DHT22;11258;52.516;13.318;2022-12-19T16:22:56;2.90;99.90
22185;DHT22;11258;52.516;13.318;2022-12-19T16:25:26;2.90;99.90
22185;DHT22;11258;52.516;13.318;2022-12-19T16:27:55;2.90;99.90
22185;DHT22;11258;52.516;13.318;2022-12-19T16:30:30;2.90;99.90
22185;DHT22;11258;52.516;13.318;2022-12-19T16:32:56;2.90;99.90
22185;DHT22;11258;52.516;13.318;2022-12-19T16:35:23;2.90;99.90
22185;DHT22;11258;52.516;13.318;2022-12-19T16:37:49;3.00;99.90
22185;DHT22;11258;52.516;13.318;2022-12-19T16:40:23;3.00;99.90
22185;DHT22;11258;52.516;13.318;2022-12-19T16:42:56;3.00;99.90
22185;DHT22;11258;52.516;13.318;2022-12-19T16:45:24;3.10;99.90
22185;DHT22;11258;52.516;13.318;2022-12-19T16:47:52;3.00;99.90
22185;DHT22;11258;52.516;13.318;2022-12-19T16:50:26;3.10;99.90
22185;DHT22;11258;52.516;13.318;2022-12-19T16:52:53;3.10;99.90
22185;DHT22;11258;52.516;13.318;2022-12-19T16:55:19;3.10;99.90
22185;DHT22;11258;52.516;13.318;2022-12-19T16:57:47;3.10;99.90
22185;DHT22;11258;52.516;13.318;2022-12-19T17:00:17;3.10;99.90
22185;DHT22;11258;52.516;13.318;2022-12-19T17:05:26;3.20;99.90
22185;DHT22;11258;52.516;13.318;2022-12-19T17:07:52;3.30;99.90
22185;DHT22;11258;52.516;13.318;2022-12-19T17:10:20;3.20;99.90
22185;DHT22;11258;52.516;13.318;2022-12-19T17:12:46;3.20;99.90
22185;DHT22;11258;52.516;13.318;2022-12-19T17:15:20;3.30;99.90
22185;DHT22;11258;52.516;13.318;2022-12-19T17:17:47;3.30;99.90
22185;DHT22;11258;52.516;13.318;2022-12-19T17:20:16;3.30;99.90
22185;DHT22;11258;52.516;13.318;2022-12-19T17:22:43;3.30;99.90
22185;DHT22;11258;52.516;13.318;2022-12-19T17:25:18;3.30;99.90
22185;DHT22;11258;52.516;13.318;2022-12-19T17:27:54;3.30;99.90
22185;DHT22;11258;52.516;13.318;2022-12-19T17:30:20;3.20;99.90
22185;DHT22;11258;52.516;13.318;2022-12-19T17:32:48;3.30;99.90
22185;DHT22;11258;52.516;13.318;2022-12-19T17:35:17;3.30;99.90
22185;DHT22;11258;52.516;13.318;2022-12-19T17:37:48;3.40;99.90
22185;DHT22;11258;52.516;13.318;2022-12-19T17:40:17;3.40;99.90
22185;DHT22;11258;52.516;13.318;2022-12-19T17:42:42;3.40;99.90
22185;DHT22;11258;52.516;13.318;2022-12-19T17:45:09;3.40;99.90
22185;DHT22;11258;52.516;13.318;2022-12-19T17:47:35;3.40;99.90
22185;DHT22;11258;52.516;13.318;2022-12-19T17:50:00;3.40;99.90
22185;DHT22;11258;52.516;13.318;2022-12-19T17:52:26;3.70;99.90
22185;DHT22;11258;52.516;13.318;2022-12-19T17:54:53;3.60;99.90
22185;DHT22;11258;52.516;13.318;2022-12-19T17:57:18;3.80;99.90
22185;DHT22;11258;52.516;13.318;2022-12-19T17:59:44;3.70;99.90